Time;durP1;ratioP1;P1;durP2;ratioP2;P2;SDS_P1;SDS_P2;PMS_P1;PMS_P2;Temp;Humidity;BMP_temperature;BMP_pressure;BME280_temperature;BME280_humidity;BME280_pressure;Samples;Min_cycle;Max_cycle;Signal;HPM_P1;HPM_P2
2023/07/22 00:00:56;;;;;;;0.50;0.50;;;14.10;99.90;;;;;;5096799;28;20462;-81
2023/07/22 00:03:23;;;;;;;0.50;0.40;;;14.20;99.90;;;;;;5096745;28;20439;-81
2023/07/22 00:06:02;;;;;;;0.50;0.40;;;14.20;99.90;;;;;;5083396;28;20442;-82
2023/07/22 00:08:29;;;;;;;0.50;0.40;;;14.20;99.90;;;;;;5090352;28;20466;-82
2023/07/22 00:10:56;;;;;;;0.50;0.40;;;14.30;99.90;;;;;;5093945;28;20440;-83
2023/07/22 00:13:26;;;;;;;0.50;0.40;;;14.30;99.90;;;;;;5093058;28;20441;-80
2023/07/22 00:15:53;;;;;;;0.50;0.40;;;14.30;99.90;;;;;;5082836;28;20919;-82
2023/07/22 00:18:20;;;;;;;0.50;0.40;;;14.30;99.90;;;;;;5089445;28;21033;-83
2023/07/22 00:20:47;;;;;;;0.50;0.40;;;14.40;99.90;;;;;;5092594;28;20434;-82
2023/07/22 00:23:15;;;;;;;0.50;0.40;;;14.40;99.90;;;;;;5093735;28;20851;-81
2023/07/22 00:25:41;;;;;;;0.50;0.40;;;14.40;99.90;;;;;;5093311;28;20537;-82
2023/07/22 00:28:08;;;;;;;0.50;0.40;;;14.40;99.90;;;;;;5093266;28;20464;-83
2023/07/22 00:30:36;;;;;;;0.50;0.40;;;14.40;99.90;;;;;;5091020;28;20949;-81
2023/07/22 00:33:03;;;;;;;0.50;0.40;;;14.40;99.90;;;;;;5088567;28;20472;-82
2023/07/22 00:35:31;;;;;;;0.50;0.37;;;14.50;99.90;;;;;;5089168;28;20454;-82
2023/07/22 00:37:58;;;;;;;0.50;0.40;;;14.40;99.90;;;;;;5092883;28;20496;-82
2023/07/22 00:40:25;;;;;;;0.50;0.40;;;14.50;99.90;;;;;;5084395;28;20438;-82
2023/07/22 00:42:52;;;;;;;0.50;0.40;;;14.50;99.90;;;;;;5081221;28;20442;-81
2023/07/22 00:45:19;;;;;;;0.50;0.40;;;14.50;99.90;;;;;;5089078;28;20945;-82
2023/07/22 00:47:48;;;;;;;0.50;0.40;;;14.60;99.90;;;;;;5087756;28;20464;-83
2023/07/22 00:50:15;;;;;;;0.80;0.70;;;14.50;99.90;;;;;;5089604;28;20453;-82
2023/07/22 00:52:42;;;;;;;0.60;0.60;;;14.50;99.90;;;;;;5091011;28;20438;-81
2023/07/22 00:55:10;;;;;;;0.50;0.40;;;14.50;99.90;;;;;;5088036;28;20451;-81
2023/07/22 00:57:37;;;;;;;0.50;0.40;;;14.50;99.90;;;;;;5093167;28;20998;-81
2023/07/22 01:00:05;;;;;;;0.50;0.40;;;14.40;99.90;;;;;;5095672;28;20964;-83
2023/07/22 01:02:34;;;;;;;3.53;1.17;;;14.50;99.90;;;;;;5087288;28;20858;-82
2023/07/22 01:05:02;;;;;;;0.50;0.40;;;14.40;99.90;;;;;;5095327;28;20449;-81
2023/07/22 01:07:29;;;;;;;0.50;0.40;;;14.40;99.90;;;;;;5095495;28;20453;-83
2023/07/22 01:09:58;;;;;;;0.80;0.80;;;14.40;99.90;;;;;;5091288;28;20446;-82
2023/07/22 01:12:25;;;;;;;0.50;0.40;;;14.40;99.90;;;;;;5091595;28;20446;-81
2023/07/22 01:14:52;;;;;;;0.50;0.40;;;14.40;99.90;;;;;;5103976;28;20462;-81
2023/07/22 01:17:20;;;;;;;0.50;0.40;;;14.40;99.90;;;;;;5095831;28;20485;-82
2023/07/22 01:19:47;;;;;;;0.50;0.40;;;14.40;99.90;;;;;;5092421;28;20543;-81
2023/07/22 01:22:17;;;;;;;0.50;0.40;;;14.40;99.90;;;;;;5092642;28;20441;-82
2023/07/22 01:24:46;;;;;;;0.60;0.57;;;14.40;99.90;;;;;;5094582;28;20441;-82
2023/07/22 01:27:14;;;;;;;0.50;0.50;;;14.40;99.90;;;;;;5095570;28;20462;-81
2023/07/22 01:29:40;;;;;;;0.50;0.40;;;14.50;99.90;;;;;;5086610;28;20442;-82
2023/07/22 01:32:08;;;;;;;0.50;0.40;;;14.50;99.90;;;;;;5094738;28;20515;-80
2023/07/22 01:34:35;;;;;;;0.50;0.40;;;14.50;99.90;;;;;;5094125;28;20770;-81
2023/07/22 01:37:02;;;;;;;0.50;0.40;;;14.50;99.90;;;;;;5092227;28;20487;-83
2023/07/22 01:39:29;;;;;;;0.50;0.40;;;14.50;99.90;;;;;;5090955;28;20443;-82
2023/07/22 01:41:57;;;;;;;0.50;0.40;;;14.50;99.90;;;;;;5094690;28;20459;-83
2023/07/22 01:44:24;;;;;;;0.50;0.40;;;14.60;99.90;;;;;;5094166;28;20516;-79
2023/07/22 01:46:51;;;;;;;0.50;0.40;;;14.60;99.90;;;;;;5092042;28;20488;-81
2023/07/22 01:49:18;;;;;;;0.50;0.40;;;14.60;99.90;;;;;;5091756;28;20472;-80
2023/07/22 01:51:45;;;;;;;0.57;0.57;;;14.60;99.90;;;;;;5095569;28;20541;-83
2023/07/22 01:54:12;;;;;;;0.50;0.40;;;14.60;99.90;;;;;;5092615;28;20445;-82
2023/07/22 01:56:40;;;;;;;0.80;0.80;;;14.60;99.90;;;;;;5092112;28;20533;-82
2023/07/22 01:59:08;;;;;;;1.90;1.03;;;14.60;99.90;;;;;;5090306;28;20442;-82
2023/07/22 02:01:35;;;;;;;0.50;0.40;;;14.60;99.90;;;;;;5090224;28;20453;-81
2023/07/22 02:04:01;;;;;;;0.50;0.40;;;14.60;99.90;;;;;;5090873;28;20471;-82
2023/07/22 02:06:28;;;;;;;0.80;0.80;;;14.60;99.90;;;;;;5091783;28;20486;-82
2023/07/22 02:08:55;;;;;;;0.50;0.40;;;14.60;99.90;;;;;;5093762;28;20438;-82
2023/07/22 02:11:22;;;;;;;2.73;1.13;;;14.60;99.90;;;;;;5095739;28;20448;-81
2023/07/22 02:13:49;;;;;;;0.60;0.57;;;14.60;99.90;;;;;;5097834;28;20449;-84
2023/07/22 02:16:18;;;;;;;3.17;1.77;;;14.60;99.90;;;;;;5097354;28;20576;-82
2023/07/22 02:18:45;;;;;;;3.17;1.03;;;14.70;99.90;;;;;;5093832;28;20441;-81
2023/07/22 02:21:12;;;;;;;1.00;1.00;;;14.60;99.90;;;;;;5093822;28;20439;-83
2023/07/22 02:23:39;;;;;;;0.50;0.50;;;14.60;99.90;;;;;;5093277;28;20445;-83
2023/07/22 02:26:05;;;;;;;0.50;0.40;;;14.60;99.90;;;;;;5093053;28;20462;-81
2023/07/22 02:28:32;;;;;;;0.60;0.53;;;14.60;99.90;;;;;;5093774;28;20462;-81
2023/07/22 02:31:06;;;;;;;0.50;0.40;;;14.60;99.90;;;;;;5096021;28;20475;-81
2023/07/22 02:33:34;;;;;;;0.50;0.40;;;14.60;99.90;;;;;;5096368;28;20445;-81
2023/07/22 02:36:01;;;;;;;0.50;0.40;;;14.60;99.90;;;;;;5092543;28;20438;-82
2023/07/22 02:38:28;;;;;;;0.50;0.40;;;14.70;99.90;;;;;;5094140;28;20523;-82
2023/07/22 02:40:54;;;;;;;0.50;0.40;;;14.60;99.90;;;;;;5097433;28;20533;-81
2023/07/22 02:43:21;;;;;;;0.50;0.40;;;14.60;99.90;;;;;;5096469;28;20446;-83
2023/07/22 02:45:48;;;;;;;0.50;0.50;;;14.60;99.90;;;;;;5096006;28;20473;-82
2023/07/22 02:48:15;;;;;;;0.50;0.40;;;14.60;99.90;;;;;;5093546;28;20497;-85
2023/07/22 02:50:43;;;;;;;1.67;1.57;;;14.60;99.90;;;;;;5093994;28;20450;-83
2023/07/22 02:53:10;;;;;;;0.50;0.40;;;14.60;99.90;;;;;;5096915;28;20437;-82
2023/07/22 02:55:37;;;;;;;0.50;0.40;;;14.50;99.90;;;;;;5096016;28;20921;-82
2023/07/22 02:58:04;;;;;;;0.50;0.40;;;14.50;99.90;;;;;;5097313;28;20520;-83
2023/07/22 03:00:31;;;;;;;0.97;0.60;;;14.50;99.90;;;;;;5097355;28;20437;-82
2023/07/22 03:03:00;;;;;;;0.50;0.40;;;14.50;99.90;;;;;;5096435;28;20445;-83
2023/07/22 03:05:28;;;;;;;0.50;0.40;;;14.50;99.90;;;;;;5096832;28;20473;-80
2023/07/22 03:07:56;;;;;;;0.50;0.40;;;14.40;99.90;;;;;;5095672;28;20861;-83
2023/07/22 03:10:25;;;;;;;0.50;0.40;;;14.40;99.90;;;;;;5093220;28;20435;-83
2023/07/22 03:12:54;;;;;;;0.50;0.40;;;14.40;99.90;;;;;;5095242;28;20442;-83
2023/07/22 03:15:22;;;;;;;7.13;2.17;;;14.40;99.90;;;;;;5098091;28;20460;-83
2023/07/22 03:17:49;;;;;;;0.50;0.40;;;14.40;99.90;;;;;;5095345;28;20485;-83
2023/07/22 03:20:16;;;;;;;0.50;0.40;;;14.40;99.90;;;;;;5098828;28;20450;-82
2023/07/22 03:22:43;;;;;;;0.50;0.40;;;14.40;99.90;;;;;;5095368;28;20587;-81
2023/07/22 03:25:13;;;;;;;0.50;0.40;;;14.40;99.90;;;;;;5092460;28;20446;-81
2023/07/22 03:27:40;;;;;;;0.50;0.40;;;14.40;99.90;;;;;;5093716;28;20550;-83
2023/07/22 03:30:08;;;;;;;0.50;0.50;;;14.40;99.90;;;;;;5085571;28;20461;-82
2023/07/22 03:32:35;;;;;;;1.20;1.20;;;14.40;99.90;;;;;;5101108;28;20442;-82
2023/07/22 03:35:02;;;;;;;1.33;1.33;;;14.40;99.90;;;;;;5093666;28;20438;-82
2023/07/22 03:37:29;;;;;;;0.50;0.40;;;14.50;99.90;;;;;;5093272;28;20484;-82
2023/07/22 03:39:56;;;;;;;0.50;0.40;;;14.40;99.90;;;;;;5094562;28;20438;-83
2023/07/22 03:42:24;;;;;;;0.50;0.40;;;14.50;99.90;;;;;;5090838;28;20498;-81
2023/07/22 03:44:51;;;;;;;0.50;0.40;;;14.50;99.90;;;;;;5093752;28;20439;-83
2023/07/22 03:47:18;;;;;;;0.57;0.53;;;14.40;99.90;;;;;;5093611;28;20525;-83
2023/07/22 03:49:45;;;;;;;0.50;0.40;;;14.40;99.90;;;;;;5094021;28;20478;-83
2023/07/22 03:52:14;;;;;;;0.50;0.40;;;14.40;99.90;;;;;;5098133;28;20442;-81
2023/07/22 03:54:40;;;;;;;0.73;0.73;;;14.40;99.90;;;;;;5096797;28;20460;-83
2023/07/22 03:57:07;;;;;;;1.47;1.37;;;14.40;99.90;;;;;;5094833;28;20454;-83
2023/07/22 03:59:35;;;;;;;1.67;1.57;;;14.40;99.90;;;;;;5093491;28;20452;-83
2023/07/22 04:02:02;;;;;;;1.00;1.00;;;14.40;99.90;;;;;;5095595;28;20518;-83
2023/07/22 04:04:29;;;;;;;0.70;0.70;;;14.40;99.90;;;;;;5089861;28;20537;-83
2023/07/22 04:06:56;;;;;;;0.50;0.40;;;14.50;99.90;;;;;;5102848;28;20532;-83
2023/07/22 04:09:23;;;;;;;1.33;1.23;;;14.50;99.90;;;;;;5094145;28;20434;-84
2023/07/22 04:11:49;;;;;;;0.50;0.40;;;14.50;99.90;;;;;;5094114;28;20478;-83
2023/07/22 04:14:16;;;;;;;1.83;1.73;;;14.50;99.90;;;;;;5096627;28;20500;-83
2023/07/22 04:16:44;;;;;;;3.73;1.63;;;14.40;99.90;;;;;;5096188;28;20470;-84
2023/07/22 04:19:11;;;;;;;0.50;0.40;;;14.40;99.90;;;;;;5087020;28;20453;-83
2023/07/22 04:21:38;;;;;;;0.50;0.40;;;14.30;99.90;;;;;;5093953;28;20521;-83
2023/07/22 04:24:06;;;;;;;0.60;0.60;;;14.30;99.90;;;;;;5095684;28;20441;-84
2023/07/22 04:26:33;;;;;;;0.50;0.40;;;14.30;99.90;;;;;;5092484;28;20449;-83
2023/07/22 04:29:00;;;;;;;0.60;0.60;;;14.30;99.90;;;;;;5104646;28;20442;-82
2023/07/22 04:31:27;;;;;;;0.50;0.40;;;14.30;99.90;;;;;;5095149;28;20445;-82
2023/07/22 04:33:55;;;;;;;0.80;0.80;;;14.40;99.90;;;;;;5095794;28;20453;-82
2023/07/22 04:36:22;;;;;;;0.50;0.43;;;14.40;99.90;;;;;;5099100;28;20444;-83
2023/07/22 04:38:49;;;;;;;0.50;0.40;;;14.40;99.90;;;;;;5100325;28;20469;-82
2023/07/22 04:41:16;;;;;;;0.50;0.40;;;14.50;99.90;;;;;;5095469;28;20442;-82
2023/07/22 04:43:42;;;;;;;0.63;0.63;;;14.50;99.90;;;;;;5098041;28;20481;-83
2023/07/22 04:46:09;;;;;;;0.50;0.40;;;14.60;99.90;;;;;;5100232;28;20441;-83
2023/07/22 04:48:37;;;;;;;0.50;0.40;;;14.70;99.90;;;;;;5100650;28;20467;-82
2023/07/22 04:51:05;;;;;;;0.50;0.50;;;14.70;99.90;;;;;;5098281;28;20450;-82
2023/07/22 04:53:32;;;;;;;0.50;0.50;;;14.70;99.90;;;;;;5095410;28;20446;-82
2023/07/22 04:55:59;;;;;;;0.50;0.40;;;14.70;99.90;;;;;;5098234;28;20437;-81
2023/07/22 04:58:26;;;;;;;0.50;0.40;;;14.80;99.90;;;;;;5104930;28;20478;-83
2023/07/22 05:00:52;;;;;;;0.50;0.40;;;14.80;99.90;;;;;;5097250;28;20452;-82
2023/07/22 05:03:19;;;;;;;0.50;0.40;;;14.90;99.90;;;;;;5101517;28;20976;-84
2023/07/22 05:05:46;;;;;;;1.33;1.23;;;14.90;99.90;;;;;;5101391;28;20442;-83
2023/07/22 05:08:14;;;;;;;0.50;0.40;;;14.90;99.90;;;;;;5098334;28;20517;-84
2023/07/22 05:10:41;;;;;;;0.50;0.40;;;14.90;99.90;;;;;;5095415;28;20442;-83
2023/07/22 05:13:08;;;;;;;1.10;1.10;;;14.90;99.90;;;;;;5100017;28;20441;-83
2023/07/22 05:15:35;;;;;;;0.50;0.40;;;15.00;99.90;;;;;;5100470;28;20507;-83
2023/07/22 05:18:01;;;;;;;0.50;0.40;;;15.00;99.90;;;;;;5098597;28;20481;-82
2023/07/22 05:20:28;;;;;;;0.83;0.83;;;15.00;99.90;;;;;;5096864;28;20506;-81
2023/07/22 05:22:56;;;;;;;0.50;0.40;;;15.10;99.90;;;;;;5096156;28;20446;-82
2023/07/22 05:25:24;;;;;;;0.50;0.50;;;15.10;99.90;;;;;;5098830;28;20930;-83
2023/07/22 05:27:51;;;;;;;0.60;0.60;;;15.00;99.90;;;;;;5100758;28;20485;-82
2023/07/22 05:30:18;;;;;;;0.87;0.87;;;15.00;99.90;;;;;;5085166;28;20529;-82
2023/07/22 05:32:45;;;;;;;0.50;0.40;;;14.90;99.90;;;;;;5095425;28;20502;-83
2023/07/22 05:35:12;;;;;;;0.50;0.40;;;14.90;99.90;;;;;;5107218;28;20809;-84
2023/07/22 05:37:38;;;;;;;0.50;0.40;;;14.80;99.90;;;;;;5099310;28;20488;-81
2023/07/22 05:40:07;;;;;;;0.77;0.77;;;14.80;99.90;;;;;;5092830;28;20449;-82
2023/07/22 05:42:35;;;;;;;2.60;2.40;;;14.80;99.90;;;;;;5098640;28;20537;-83
2023/07/22 05:45:03;;;;;;;0.87;0.87;;;14.90;99.90;;;;;;5094128;28;20516;-84
2023/07/22 05:47:30;;;;;;;0.83;0.83;;;14.90;99.90;;;;;;5098334;28;20496;-81
2023/07/22 05:49:57;;;;;;;0.50;0.40;;;15.00;99.90;;;;;;5102597;28;20440;-84
2023/07/22 05:52:23;;;;;;;0.50;0.40;;;15.00;99.90;;;;;;5098374;28;20449;-81
2023/07/22 05:54:50;;;;;;;0.50;0.40;;;15.20;99.90;;;;;;5098622;28;20952;-82
2023/07/22 05:57:17;;;;;;;1.23;0.90;;;15.30;99.90;;;;;;5101353;28;20457;-80
2023/07/22 05:59:46;;;;;;;0.50;0.40;;;15.50;99.90;;;;;;5102164;28;20434;-84
2023/07/22 06:02:19;;;;;;;0.60;0.50;;;15.60;99.90;;;;;;5099824;28;20453;-83
2023/07/22 06:04:46;;;;;;;0.50;0.40;;;15.60;99.90;;;;;;5101189;28;20451;-82
2023/07/22 06:07:12;;;;;;;0.50;0.40;;;15.60;99.90;;;;;;5098578;28;20450;-84
2023/07/22 06:09:39;;;;;;;3.03;1.90;;;15.70;99.90;;;;;;5097443;28;20435;-83
2023/07/22 06:12:06;;;;;;;0.50;0.40;;;15.90;99.90;;;;;;5098199;28;20534;-84
2023/07/22 06:14:33;;;;;;;1.93;1.40;;;16.00;99.90;;;;;;5102877;28;20439;-83
2023/07/22 06:17:02;;;;;;;0.50;0.50;;;16.10;99.90;;;;;;5099286;28;20510;-83
2023/07/22 06:19:29;;;;;;;0.50;0.40;;;16.20;99.90;;;;;;5109710;28;20540;-85
2023/07/22 06:21:55;;;;;;;3.23;2.93;;;16.30;99.90;;;;;;5106235;28;20434;-85
2023/07/22 06:24:22;;;;;;;5.70;1.47;;;16.50;99.90;;;;;;5088378;28;20453;-82
2023/07/22 06:26:49;;;;;;;0.50;0.40;;;16.60;99.90;;;;;;5096112;28;20550;-84
2023/07/22 06:29:16;;;;;;;1.17;1.17;;;16.90;99.90;;;;;;5099692;28;20481;-84
2023/07/22 06:31:43;;;;;;;0.50;0.40;;;17.10;99.90;;;;;;5100126;28;20442;-84
2023/07/22 06:34:11;;;;;;;0.60;0.60;;;17.60;99.90;;;;;;5096916;28;20928;-85
2023/07/22 06:36:38;;;;;;;0.50;0.40;;;17.70;99.90;;;;;;5095447;28;20457;-84
2023/07/22 06:39:05;;;;;;;9.30;8.70;;;17.80;99.90;;;;;;5096492;28;20550;-84
2023/07/22 06:41:31;;;;;;;0.50;0.40;;;18.00;99.90;;;;;;5099352;28;20510;-83
2023/07/22 06:43:58;;;;;;;0.60;0.40;;;18.40;99.90;;;;;;5097783;28;20450;-83
2023/07/22 06:46:25;;;;;;;0.50;0.40;;;18.70;99.90;;;;;;5087461;28;20439;-84
2023/07/22 06:48:52;;;;;;;0.50;0.40;;;19.00;99.90;;;;;;5094953;28;20473;-84
2023/07/22 06:51:20;;;;;;;0.50;0.40;;;19.50;99.90;;;;;;5074506;22;20486;-79
2023/07/22 06:53:46;;;;;;;0.50;0.40;;;19.90;99.90;;;;;;5027066;28;20511;-80
2023/07/22 06:56:13;;;;;;;0.50;0.40;;;20.60;99.90;;;;;;5031705;28;20443;-79
2023/07/22 06:58:40;;;;;;;0.50;0.40;;;21.10;99.90;;;;;;5032926;28;21091;-80
2023/07/22 07:01:07;;;;;;;0.60;0.50;;;21.40;99.90;;;;;;5031271;28;20465;-79
2023/07/22 07:03:33;;;;;;;0.83;0.83;;;21.40;99.90;;;;;;5029519;28;20455;-79
2023/07/22 07:06:01;;;;;;;0.50;0.30;;;21.30;99.90;;;;;;5037117;28;20445;-79
2023/07/22 07:08:30;;;;;;;0.50;0.30;;;21.10;99.90;;;;;;5024121;28;20532;-79
2023/07/22 07:10:56;;;;;;;0.50;0.40;;;21.20;99.90;;;;;;5032146;28;20519;-79
2023/07/22 07:13:23;;;;;;;1.33;0.87;;;21.20;99.90;;;;;;5028846;28;20434;-79
2023/07/22 07:15:50;;;;;;;1.23;1.13;;;21.10;99.90;;;;;;5036912;28;20457;-79
2023/07/22 07:18:17;;;;;;;0.50;0.30;;;21.30;99.90;;;;;;5033364;28;20485;-79
2023/07/22 07:20:44;;;;;;;0.50;0.30;;;21.40;99.90;;;;;;5033553;28;20478;-80
2023/07/22 07:23:11;;;;;;;0.73;0.73;;;21.30;99.90;;;;;;5031018;28;20463;-79
2023/07/22 07:25:39;;;;;;;0.50;0.30;;;21.70;99.90;;;;;;5030945;28;20451;-79
2023/07/22 07:28:06;;;;;;;0.50;0.40;;;21.60;99.90;;;;;;5029812;28;20447;-80
2023/07/22 07:30:33;;;;;;;0.70;0.67;;;22.10;99.90;;;;;;5032986;28;20461;-79
2023/07/22 07:33:00;;;;;;;0.50;0.40;;;22.40;99.90;;;;;;5032279;28;20581;-79
2023/07/22 07:35:26;;;;;;;0.50;0.30;;;22.40;99.90;;;;;;5029382;28;20437;-79
2023/07/22 07:37:53;;;;;;;0.50;0.30;;;22.60;99.90;;;;;;5028999;28;20451;-79
2023/07/22 07:40:20;;;;;;;0.53;0.47;;;22.80;99.90;;;;;;5030731;28;20481;-79
2023/07/22 07:42:48;;;;;;;1.47;1.37;;;22.80;97.30;;;;;;5030677;28;20532;-80
2023/07/22 07:45:15;;;;;;;1.17;0.63;;;22.20;99.80;;;;;;5030160;28;20450;-80
2023/07/22 07:47:42;;;;;;;0.50;0.47;;;22.00;99.90;;;;;;5028771;28;20510;-79
2023/07/22 07:50:09;;;;;;;0.50;0.30;;;22.00;99.90;;;;;;5028321;28;20485;-78
2023/07/22 07:52:38;;;;;;;0.50;0.30;;;22.00;99.90;;;;;;5031917;28;20453;-79
2023/07/22 07:55:06;;;;;;;1.57;0.70;;;22.30;99.90;;;;;;5031905;28;21025;-79
2023/07/22 07:57:32;;;;;;;0.50;0.30;;;22.60;99.60;;;;;;5024720;28;20514;-79
2023/07/22 08:00:00;;;;;;;1.27;1.17;;;22.30;99.90;;;;;;5032699;28;20839;-77
2023/07/22 08:02:27;;;;;;;0.80;0.40;;;22.60;98.80;;;;;;5028449;28;20446;-79
2023/07/22 08:04:54;;;;;;;0.50;0.40;;;22.70;98.50;;;;;;5028911;28;20445;-79
2023/07/22 08:07:21;;;;;;;0.60;0.57;;;22.80;98.00;;;;;;5030714;28;20456;-79
2023/07/22 08:09:49;;;;;;;0.60;0.60;;;23.10;98.00;;;;;;5031833;28;20476;-79
2023/07/22 08:12:16;;;;;;;3.50;1.90;;;23.00;95.70;;;;;;5030141;28;20452;-78
2023/07/22 08:14:43;;;;;;;8.60;4.33;;;22.80;95.20;;;;;;5031182;28;20450;-79
2023/07/22 08:17:11;;;;;;;1.10;1.00;;;22.80;96.00;;;;;;5031212;28;20460;-79
2023/07/22 08:19:38;;;;;;;0.60;0.53;;;23.00;95.00;;;;;;5027472;28;21001;-78
2023/07/22 08:22:05;;;;;;;0.50;0.40;;;22.90;94.90;;;;;;5028524;28;20461;-79
2023/07/22 08:24:33;;;;;;;0.60;0.57;;;23.00;94.80;;;;;;5030659;28;20452;-79
2023/07/22 08:26:59;;;;;;;0.50;0.30;;;23.10;93.40;;;;;;5031858;28;20483;-79
2023/07/22 08:29:26;;;;;;;1.03;0.93;;;23.40;93.20;;;;;;5030367;28;20818;-80
2023/07/22 08:31:53;;;;;;;1.20;0.40;;;24.00;91.20;;;;;;5028729;28;20450;-79
2023/07/22 08:34:21;;;;;;;1.40;1.23;;;24.00;91.80;;;;;;5029723;28;20449;-79
2023/07/22 08:36:48;;;;;;;1.53;1.43;;;24.00;90.00;;;;;;5032390;28;20447;-79
2023/07/22 08:39:15;;;;;;;0.60;0.40;;;24.00;87.40;;;;;;5030160;28;20671;-79
2023/07/22 08:41:48;;;;;;;0.60;0.50;;;23.70;88.50;;;;;;5029254;28;20477;-79
2023/07/22 08:44:19;;;;;;;1.47;1.37;;;24.00;90.30;;;;;;5028801;28;20938;-79
2023/07/22 08:46:47;;;;;;;0.77;0.77;;;23.40;88.50;;;;;;5030664;28;20550;-78
2023/07/22 08:49:14;;;;;;;0.50;0.50;;;22.50;90.50;;;;;;5030300;28;20436;-79
2023/07/22 08:51:43;;;;;;;1.60;0.87;;;22.30;92.20;;;;;;5026796;28;20472;-78
2023/07/22 08:54:10;;;;;;;1.47;1.23;;;22.20;92.30;;;;;;5027365;28;20455;-78
2023/07/22 08:56:37;;;;;;;0.70;0.50;;;22.10;93.80;;;;;;5030167;28;20437;-79
2023/07/22 08:59:06;;;;;;;0.67;0.67;;;22.10;95.00;;;;;;5029191;28;20488;-78
2023/07/22 09:01:35;;;;;;;0.50;0.40;;;21.70;94.10;;;;;;5028105;28;20524;-79
2023/07/22 09:04:02;;;;;;;0.50;0.30;;;21.70;97.90;;;;;;5027758;28;20823;-79
2023/07/22 09:06:30;;;;;;;0.50;0.40;;;21.90;98.10;;;;;;5030948;28;20449;-79
2023/07/22 09:08:59;;;;;;;0.50;0.30;;;22.00;96.90;;;;;;5031418;28;20527;-79
2023/07/22 09:11:26;;;;;;;0.50;0.40;;;21.70;96.70;;;;;;5029442;28;20491;-78
2023/07/22 09:13:54;;;;;;;1.10;1.10;;;21.90;99.80;;;;;;5027669;28;20446;-79
2023/07/22 09:16:22;;;;;;;0.50;0.30;;;21.90;99.90;;;;;;5031371;28;20459;-79
2023/07/22 09:18:49;;;;;;;1.03;0.93;;;21.70;99.90;;;;;;5034710;28;20478;-77
2023/07/22 09:21:16;;;;;;;0.80;0.80;;;21.60;99.90;;;;;;5033703;28;20465;-79
2023/07/22 09:23:43;;;;;;;0.53;0.50;;;21.50;99.90;;;;;;5030195;28;20447;-78
2023/07/22 09:26:12;;;;;;;0.50;0.30;;;21.60;99.90;;;;;;5031215;28;20454;-78
2023/07/22 09:28:53;;;;;;;0.90;0.67;;;21.70;99.90;;;;;;5034113;28;20443;-79
2023/07/22 09:31:21;;;;;;;0.70;0.60;;;21.90;98.00;;;;;;5033226;28;20463;-80
2023/07/22 09:33:47;;;;;;;0.50;0.30;;;22.00;96.80;;;;;;5030317;28;20937;-79
2023/07/22 09:36:14;;;;;;;0.90;0.53;;;22.20;96.60;;;;;;5030702;28;20434;-78
2023/07/22 09:38:41;;;;;;;1.57;1.47;;;22.20;96.70;;;;;;5034310;28;20548;-78
2023/07/22 09:41:08;;;;;;;0.50;0.40;;;22.60;97.30;;;;;;5034588;28;20997;-79
2023/07/22 09:43:39;;;;;;;1.87;1.17;;;23.60;96.20;;;;;;5031683;28;20895;-79
2023/07/22 09:46:10;;;;;;;1.17;1.17;;;24.30;91.20;;;;;;5031788;28;20529;-80
2023/07/22 09:48:44;;;;;;;0.50;0.30;;;23.90;92.40;;;;;;5034575;28;20452;-80
2023/07/22 09:51:16;;;;;;;1.00;1.00;;;23.80;97.60;;;;;;5035654;28;20472;-80
2023/07/22 09:53:47;;;;;;;0.50;0.30;;;23.60;90.70;;;;;;5027019;28;20453;-79
2023/07/22 09:56:14;;;;;;;0.50;0.30;;;23.30;88.80;;;;;;5035860;28;20455;-79
2023/07/22 09:58:46;;;;;;;0.50;0.40;;;23.00;89.80;;;;;;5031883;28;20488;-79
2023/07/22 10:01:16;;;;;;;4.20;1.23;;;22.90;91.50;;;;;;5031961;28;20465;-80
2023/07/22 10:03:46;;;;;;;0.50;0.37;;;23.10;90.30;;;;;;5027404;28;20444;-80
2023/07/22 10:06:14;;;;;;;2.50;0.73;;;23.30;90.30;;;;;;5037103;28;20445;-79
2023/07/22 10:08:44;;;;;;;0.60;0.57;;;23.10;91.10;;;;;;5037451;28;20459;-79
2023/07/22 10:11:14;;;;;;;0.97;0.93;;;23.30;92.20;;;;;;5035062;28;20464;-80
2023/07/22 10:13:42;;;;;;;0.93;0.93;;;23.40;91.60;;;;;;5031565;28;20445;-76
2023/07/22 10:16:09;;;;;;;0.50;0.33;;;23.30;91.60;;;;;;5032453;28;20476;-79
2023/07/22 10:18:37;;;;;;;1.80;0.67;;;23.60;92.30;;;;;;5034728;28;20438;-80
2023/07/22 10:21:05;;;;;;;0.60;0.50;;;23.70;90.90;;;;;;5035480;28;20457;-80
2023/07/22 10:23:33;;;;;;;0.80;0.80;;;23.60;91.30;;;;;;5032736;28;20448;-79
2023/07/22 10:26:00;;;;;;;1.67;0.93;;;24.10;90.10;;;;;;5030547;28;20445;-79
2023/07/22 10:28:27;;;;;;;0.50;0.40;;;23.90;86.40;;;;;;5031609;28;20450;-79
2023/07/22 10:30:56;;;;;;;0.50;0.40;;;24.00;87.30;;;;;;5035095;28;20456;-79
2023/07/22 10:33:23;;;;;;;0.53;0.53;;;24.10;89.00;;;;;;5034020;28;20478;-80
2023/07/22 10:36:05;;;;;;;0.50;0.30;;;23.80;87.70;;;;;;5031317;28;20469;-79
2023/07/22 10:38:32;;;;;;;1.13;0.97;;;23.90;89.40;;;;;;5033131;28;20500;-80
2023/07/22 10:40:59;;;;;;;0.80;0.60;;;24.80;86.60;;;;;;5034399;28;20484;-80
2023/07/22 10:43:27;;;;;;;0.50;0.50;;;25.60;85.50;;;;;;5033441;28;20456;-80
2023/07/22 10:45:57;;;;;;;0.50;0.37;;;26.40;79.50;;;;;;5032290;28;20465;-80
2023/07/22 10:48:28;;;;;;;0.53;0.50;;;26.70;79.80;;;;;;5032479;28;20473;-79
2023/07/22 10:50:59;;;;;;;0.50;0.50;;;26.90;79.60;;;;;;5036281;28;20473;-79
2023/07/22 10:53:31;;;;;;;0.50;0.30;;;27.60;75.00;;;;;;5034981;28;20455;-80
2023/07/22 10:56:06;;;;;;;0.50;0.30;;;28.10;72.10;;;;;;5031537;28;20459;-78
2023/07/22 10:58:34;;;;;;;1.67;0.70;;;27.70;68.50;;;;;;5033020;28;20462;-80
2023/07/22 11:01:36;;;;;;;0.60;0.40;;;27.30;67.90;;;;;;5034349;28;20485;-79
2023/07/22 11:04:14;;;;;;;0.80;0.73;;;26.60;69.00;;;;;;4953582;29;20466;-79
2023/07/22 11:06:54;;;;;;;0.50;0.40;;;26.50;69.80;;;;;;4952192;29;20528;-80
2023/07/22 11:09:37;;;;;;;1.23;1.13;;;26.70;70.40;;;;;;4951548;29;20474;-79
2023/07/22 11:12:06;;;;;;;0.50;0.30;;;26.30;69.30;;;;;;4951132;29;20981;-80
2023/07/22 11:14:34;;;;;;;0.50;0.30;;;26.40;69.90;;;;;;4951661;29;20442;-80
2023/07/22 11:17:04;;;;;;;0.50;0.40;;;26.70;68.90;;;;;;4954357;29;20443;-79
2023/07/22 11:19:32;;;;;;;0.50;0.30;;;27.20;67.60;;;;;;4953302;29;20506;-79
2023/07/22 11:21:59;;;;;;;1.00;0.90;;;27.10;67.60;;;;;;4951015;29;20467;-80
2023/07/22 11:24:25;;;;;;;0.60;0.50;;;27.30;66.90;;;;;;4951072;29;20450;-78
2023/07/22 11:26:54;;;;;;;0.50;0.30;;;27.60;66.10;;;;;;4953673;29;20528;-81
2023/07/22 11:29:21;;;;;;;0.73;0.67;;;27.80;65.60;;;;;;4954252;29;20444;-80
2023/07/22 11:31:49;;;;;;;0.50;0.30;;;27.50;63.70;;;;;;4951065;29;20471;-80
2023/07/22 11:34:18;;;;;;;0.50;0.40;;;27.30;64.80;;;;;;4968298;28;20990;-80
2023/07/22 11:36:46;;;;;;;0.50;0.30;;;27.80;65.20;;;;;;5033147;28;20443;-77
2023/07/22 11:39:15;;;;;;;0.67;0.67;;;27.60;63.90;;;;;;5033133;28;20491;-79
2023/07/22 11:41:42;;;;;;;0.90;0.40;;;27.70;64.40;;;;;;5031355;28;20467;-79
2023/07/22 11:44:12;;;;;;;1.13;0.80;;;27.30;64.00;;;;;;5029781;28;20573;-80
2023/07/22 11:46:48;;;;;;;0.50;0.30;;;26.70;64.50;;;;;;5031411;28;20445;-81
2023/07/22 11:49:25;;;;;;;0.50;0.30;;;26.50;67.60;;;;;;5034075;28;20445;-80
2023/07/22 11:51:51;;;;;;;0.60;0.53;;;26.50;66.00;;;;;;5030308;28;20954;-80
2023/07/22 11:54:21;;;;;;;0.50;0.37;;;25.80;67.60;;;;;;5030910;28;20449;-81
2023/07/22 11:56:48;;;;;;;0.50;0.40;;;26.00;67.40;;;;;;5033338;28;20447;-80
2023/07/22 11:59:14;;;;;;;0.50;0.30;;;25.70;68.90;;;;;;5035466;28;20811;-81
2023/07/22 12:01:45;;;;;;;0.50;0.30;;;25.90;70.20;;;;;;5033330;28;20468;-80
2023/07/22 12:04:12;;;;;;;0.97;0.80;;;26.10;71.20;;;;;;5030863;28;20446;-80
2023/07/22 12:06:41;;;;;;;0.50;0.40;;;25.80;69.00;;;;;;5032777;28;20446;-80
2023/07/22 12:09:09;;;;;;;0.80;0.50;;;25.50;70.10;;;;;;5033751;28;20446;-80
2023/07/22 12:11:36;;;;;;;0.50;0.40;;;25.50;68.70;;;;;;5033225;28;20465;-80
2023/07/22 12:14:10;;;;;;;0.50;0.30;;;25.60;70.40;;;;;;5030861;28;20508;-81
2023/07/22 12:16:37;;;;;;;0.50;0.40;;;26.40;70.90;;;;;;5031590;28;20456;-80
2023/07/22 12:19:04;;;;;;;0.50;0.30;;;26.80;66.30;;;;;;5033691;28;20453;-79
2023/07/22 12:21:31;;;;;;;1.20;0.70;;;26.60;66.50;;;;;;5032533;28;20453;-79
2023/07/22 12:24:00;;;;;;;0.50;0.30;;;26.30;66.50;;;;;;5030935;28;20488;-80
2023/07/22 12:26:27;;;;;;;0.50;0.40;;;25.90;67.40;;;;;;5030756;28;20477;-80
2023/07/22 12:28:53;;;;;;;1.23;1.13;;;25.50;66.60;;;;;;5034324;28;20451;-77
2023/07/22 12:31:20;;;;;;;0.60;0.60;;;25.60;67.20;;;;;;5034475;28;20470;-81
2023/07/22 12:33:47;;;;;;;0.50;0.37;;;25.50;67.20;;;;;;5031045;28;20444;-80
2023/07/22 12:36:14;;;;;;;4.40;1.27;;;25.40;68.00;;;;;;5031304;28;20461;-80
2023/07/22 12:38:40;;;;;;;0.60;0.50;;;25.40;68.60;;;;;;5031649;28;20437;-79
2023/07/22 12:41:08;;;;;;;0.97;0.87;;;25.10;67.20;;;;;;5033889;28;20488;-80
2023/07/22 12:43:35;;;;;;;0.50;0.30;;;25.00;68.50;;;;;;5033389;28;20448;-80
2023/07/22 12:46:02;;;;;;;0.50;0.40;;;25.10;70.60;;;;;;5030070;28;20452;-80
2023/07/22 12:48:29;;;;;;;0.50;0.30;;;25.20;69.10;;;;;;5030305;28;20513;-80
2023/07/22 12:53:23;;;;;;;0.50;0.50;;;25.60;68.70;;;;;;5039577;28;20471;-82